Date,TemperatureHighF,TemperatureAvgF,TemperatureLowF,DewpointHighF,DewpointAvgF,DewpointLowF,HumidityHigh,HumidityAvg,HumidityLow,PressureMaxIn,PressureMinIn,WindSpeedMaxMPH,WindSpeedAvgMPH,GustSpeedMaxMPH,PrecipitationSumIn
2013-5-1,77.0,73.6,70.0,77.0,28.6,-99.9,100,74,100,30.03,29.88,23,19,0,0.00
2013-5-2,75.0,69.5,66.0,75.0,10.9,-99.9,100,65,100,30.12,30.03,29,25,0,0.00
2013-5-3,70.0,65.2,63.0,70.0,10.8,-99.9,100,67,100,30.12,30.00,26,15,0,0.00
2013-5-4,66.0,62.7,61.0,66.0,-14.9,-99.9,100,52,100,30.06,29.94,25,19,0,0.00
2013-5-5,64.0,61.6,59.0,64.0,41.5,-99.9,100,88,100,29.91,29.77,25,18,0,0.00
2013-5-6,72.0,72.0,72.0,72.0,72.0,72.0,100,100,100,29.91,29.91,5,5,0,0.00
2013-5-7,63.0,60.5,59.0,63.0,-0.0,-99.9,100,62,100,29.97,29.94,15,12,0,0.00
2013-5-8,61.0,60.0,59.0,61.0,23.9,-99.9,100,77,100,30.03,30.00,14,10,0,0.00
2013-5-9,64.0,59.7,57.0,64.0,59.7,57.0,100,100,100,30.03,29.97,23,17,0,0.00
2013-5-10,57.0,53.0,50.0,57.0,31.1,-99.9,100,85,100,30.09,30.03,32,29,0,0.00
2013-5-11,54.0,49.3,50.0,54.0,-0.7,-99.9,100,70,100,30.12,30.00,22,16,0,0.00
2013-5-12,61.0,55.5,52.0,61.0,5.2,-99.9,100,68,100,30.15,30.03,26,16,0,0.00
2013-5-13,57.0,54.0,50.0,57.0,-10.2,-99.9,100,57,100,30.08,30.08,23,19,0,0.00
2013-5-14,53.0,50.9,48.0,53.0,23.9,-99.9,100,82,100,30.12,30.06,20,12,0,0.00
2013-5-15,63.0,54.4,50.0,63.0,54.4,50.0,100,100,100,30.09,29.97,16,8,0,0.00
2013-5-16,59.0,52.4,50.0,57.0,35.9,-99.9,100,91,100,30.00,29.85,23,11,0,0.00
2013-5-18,54.0,50.9,48.0,54.0,-47.5,-99.9,100,34,100,30.15,29.91,23,18,0,0.00
2013-5-19,46.0,45.0,44.0,32.0,-55.9,-99.9,64,21,64,30.42,30.27,14,8,0,0.00
2013-5-20,41.0,40.2,39.0,39.0,-16.6,-99.9,93,56,93,30.42,30.39,11,10,0,0.00
2013-5-21,46.0,46.0,46.0,46.0,46.0,46.0,100,100,100,30.30,30.30,40,29,0,0.00
2013-5-22,52.0,49.4,46.0,50.0,-95.1,-99.9,98,3,98,30.06,29.97,37,29,0,0.00
2013-5-23,64.0,51.4,46.0,42.0,-71.2,-99.9,61,11,46,29.97,29.80,32,23,0,0.00
2013-5-24,50.0,50.0,50.0,-99.9,-99.9,-99.9,0,0,100,0.00,40.00,18,18,0,0.00
2013-5-25,51.0,49.5,48.0,43.0,-55.3,-99.9,79,24,59,30.00,29.94,16,7,0,0.00
2013-5-26,49.0,48.6,48.0,42.0,-11.2,-99.9,76,48,76,30.00,30.00,10,8,0,0.00
2013-5-27,50.0,49.0,48.0,41.0,-0.4,-99.9,74,49,59,29.88,29.80,7,3,0,0.00
2013-5-28,56.0,55.8,55.0,38.0,37.2,35.0,50,49,46,29.68,29.68,6,6,0,0.00
2013-5-30,48.0,48.0,48.0,-99.9,-99.9,-99.9,0,0,100,29.88,29.88,20,18,0,0.00
2013-5-31,50.0,50.0,50.0,-99.9,-99.9,-99.9,0,0,100,0.00,40.00,20,18,0,0.00